Maracaja, Brazil
Current Conditions -  °F | °C
As of 10:00 AM on Saturday 25 Oct 2014 (Local Time) from SBCM Reporting Station
Broken Clouds Broken Clouds  
Wind Chill: 72°   Ceiling: 1000
Heat Index: 72°   Visibility: 4mi
Dew Point: 66°   Wind: 3mph
Humidity: 83%   Direction: 180°S
Pressure: 29.94"   Gusts: NA
Location:  28.85°S, 49.45°W
Report Text: SBCM 251200Z 18003KT 7000 BKN010 BKN020 22/19 Q1014
Loading
Personal Weather Stations






























Interactive Weather Map
Tropical Storm Tracking
New forecast layout! Learn more

10-Day Weather Forecast

Advertisements
Track Severe Weather on mobile